sensor_id;sensor_type;location;lat;lon;timestamp;pressure;altitude;pressure_sealevel;temperature;humidity
10014;BME280;45684;48.358;10.746;2023-09-07T00:00:17;96539.47;;;14.32;100.00
10014;BME280;45684;48.358;10.746;2023-09-07T00:02:46;96538.97;;;14.29;100.00
10014;BME280;45684;48.358;10.746;2023-09-07T00:05:13;96540.75;;;14.25;100.00
10014;BME280;45684;48.358;10.746;2023-09-07T00:07:41;96543.81;;;14.24;100.00
10014;BME280;45684;48.358;10.746;2023-09-07T00:10:09;96542.53;;;14.21;100.00
10014;BME280;45684;48.358;10.746;2023-09-07T00:12:37;96537.31;;;14.16;100.00
10014;BME280;45684;48.358;10.746;2023-09-07T00:15:09;96546.78;;;14.10;100.00
10014;BME280;45684;48.358;10.746;2023-09-07T00:17:37;96544.72;;;14.07;100.00
10014;BME280;45684;48.358;10.746;2023-09-07T00:20:05;96536.44;;;14.03;100.00
10014;BME280;45684;48.358;10.746;2023-09-07T00:22:38;96545.25;;;14.00;100.00
10014;BME280;45684;48.358;10.746;2023-09-07T00:25:07;96540.94;;;13.99;100.00
10014;BME280;45684;48.358;10.746;2023-09-07T00:27:36;96535.50;;;13.99;100.00
10014;BME280;45684;48.358;10.746;2023-09-07T00:30:04;96535.50;;;13.99;100.00
10014;BME280;45684;48.358;10.746;2023-09-07T00:32:35;96534.72;;;13.99;100.00
10014;BME280;45684;48.358;10.746;2023-09-07T00:35:04;96530.38;;;13.98;100.00
10014;BME280;45684;48.358;10.746;2023-09-07T00:37:32;96538.06;;;13.96;100.00
10014;BME280;45684;48.358;10.746;2023-09-07T00:40:00;96533.78;;;13.95;100.00
10014;BME280;45684;48.358;10.746;2023-09-07T00:42:30;96532.97;;;13.94;100.00
10014;BME280;45684;48.358;10.746;2023-09-07T00:44:58;96532.16;;;13.94;100.00
10014;BME280;45684;48.358;10.746;2023-09-07T00:47:25;96534.41;;;13.92;100.00
10014;BME280;45684;48.358;10.746;2023-09-07T00:49:55;96528.03;;;13.88;100.00
10014;BME280;45684;48.358;10.746;2023-09-07T00:52:25;96528.38;;;13.86;100.00
10014;BME280;45684;48.358;10.746;2023-09-07T00:54:53;96526.78;;;13.85;100.00
10014;BME280;45684;48.358;10.746;2023-09-07T00:57:21;96525.97;;;13.85;100.00
10014;BME280;45684;48.358;10.746;2023-09-07T00:59:50;96527.88;;;13.84;100.00
10014;BME280;45684;48.358;10.746;2023-09-07T01:02:18;96527.44;;;13.82;100.00
10014;BME280;45684;48.358;10.746;2023-09-07T01:04:46;96534.78;;;13.82;100.00
10014;BME280;45684;48.358;10.746;2023-09-07T01:07:17;96526.50;;;13.78;100.00
10014;BME280;45684;48.358;10.746;2023-09-07T01:09:49;96526.34;;;13.74;100.00
10014;BME280;45684;48.358;10.746;2023-09-07T01:12:19;96528.59;;;13.72;100.00
10014;BME280;45684;48.358;10.746;2023-09-07T01:14:46;96527.31;;;13.70;100.00
10014;BME280;45684;48.358;10.746;2023-09-07T01:17:15;96520.94;;;13.66;100.00
10014;BME280;45684;48.358;10.746;2023-09-07T01:19:44;96520.94;;;13.66;100.00
10014;BME280;45684;48.358;10.746;2023-09-07T01:22:15;96524.78;;;13.65;100.00
10014;BME280;45684;48.358;10.746;2023-09-07T01:24:45;96520.81;;;13.62;100.00
10014;BME280;45684;48.358;10.746;2023-09-07T01:27:14;96524.00;;;13.64;100.00
10014;BME280;45684;48.358;10.746;2023-09-07T01:29:41;96521.75;;;13.66;100.00
10014;BME280;45684;48.358;10.746;2023-09-07T01:32:09;96517.75;;;13.64;100.00
10014;BME280;45684;48.358;10.746;2023-09-07T01:34:37;96520.81;;;13.62;100.00
10014;BME280;45684;48.358;10.746;2023-09-07T01:37:07;96520.19;;;13.57;100.00
10014;BME280;45684;48.358;10.746;2023-09-07T01:39:37;96517.66;;;13.51;100.00
10014;BME280;45684;48.358;10.746;2023-09-07T01:42:05;96528.41;;;13.48;100.00
10014;BME280;45684;48.358;10.746;2023-09-07T01:44:33;96525.53;;;13.44;100.00
10014;BME280;45684;48.358;10.746;2023-09-07T01:47:01;96519.28;;;13.44;100.00
10014;BME280;45684;48.358;10.746;2023-09-07T01:49:29;96522.66;;;13.41;100.00
10014;BME280;45684;48.358;10.746;2023-09-07T01:51:57;96518.34;;;13.40;100.00
10014;BME280;45684;48.358;10.746;2023-09-07T01:54:25;96517.88;;;13.38;100.00
10014;BME280;45684;48.358;10.746;2023-09-07T01:56:55;96511.50;;;13.34;100.00
10014;BME280;45684;48.358;10.746;2023-09-07T01:59:23;96521.09;;;13.31;100.00
10014;BME280;45684;48.358;10.746;2023-09-07T02:01:50;96520.47;;;13.25;100.00
10014;BME280;45684;48.358;10.746;2023-09-07T02:04:19;96518.41;;;13.22;100.00
10014;BME280;45684;48.358;10.746;2023-09-07T02:06:47;96520.63;;;13.20;100.00
10014;BME280;45684;48.358;10.746;2023-09-07T02:09:14;96520.47;;;13.17;100.00
10014;BME280;45684;48.358;10.746;2023-09-07T02:11:42;96516.97;;;13.16;100.00
10014;BME280;45684;48.358;10.746;2023-09-07T02:14:11;96521.91;;;13.14;100.00
10014;BME280;45684;48.358;10.746;2023-09-07T02:16:39;96521.91;;;13.14;100.00
10014;BME280;45684;48.358;10.746;2023-09-07T02:19:09;96524.63;;;13.14;100.00
10014;BME280;45684;48.358;10.746;2023-09-07T02:21:37;96521.44;;;13.12;100.00
10014;BME280;45684;48.358;10.746;2023-09-07T02:24:05;96519.06;;;13.11;100.00
10014;BME280;45684;48.358;10.746;2023-09-07T02:26:34;96523.66;;;13.10;100.00
10014;BME280;45684;48.358;10.746;2023-09-07T02:29:02;96513.13;;;13.09;100.00
10014;BME280;45684;48.358;10.746;2023-09-07T02:31:34;96520.50;;;13.08;100.00
10014;BME280;45684;48.358;10.746;2023-09-07T02:34:03;96521.13;;;13.05;100.00
10014;BME280;45684;48.358;10.746;2023-09-07T02:36:31;96526.09;;;13.03;100.00
10014;BME280;45684;48.358;10.746;2023-09-07T02:38:59;96535.53;;;12.97;100.00
10014;BME280;45684;48.358;10.746;2023-09-07T02:41:28;96534.09;;;12.91;100.00
10014;BME280;45684;48.358;10.746;2023-09-07T02:43:56;96535.06;;;12.86;100.00
10014;BME280;45684;48.358;10.746;2023-09-07T02:46:23;96541.94;;;12.84;100.00
10014;BME280;45684;48.358;10.746;2023-09-07T02:48:52;96531.72;;;12.81;100.00
10014;BME280;45684;48.358;10.746;2023-09-07T02:51:24;96530.28;;;12.74;100.00
10014;BME280;45684;48.358;10.746;2023-09-07T02:53:56;96533.63;;;12.71;100.00
10014;BME280;45684;48.358;10.746;2023-09-07T02:56:24;96535.22;;;12.72;100.00
10014;BME280;45684;48.358;10.746;2023-09-07T02:58:52;96541.16;;;12.74;100.00
10014;BME280;45684;48.358;10.746;2023-09-07T03:01:20;96534.13;;;12.73;100.00
10014;BME280;45684;48.358;10.746;2023-09-07T03:03:49;96544.50;;;12.71;100.00
10014;BME280;45684;48.358;10.746;2023-09-07T03:06:19;96540.66;;;12.72;100.00
10014;BME280;45684;48.358;10.746;2023-09-07T03:08:50;96537.94;;;12.72;100.00
10014;BME280;45684;48.358;10.746;2023-09-07T03:11:19;96535.56;;;12.71;100.00
10014;BME280;45684;48.358;10.746;2023-09-07T03:13:48;96535.09;;;12.69;100.00
10014;BME280;45684;48.358;10.746;2023-09-07T03:16:16;96537.81;;;12.69;100.00
10014;BME280;45684;48.358;10.746;2023-09-07T03:18:44;96540.81;;;12.67;100.00
10014;BME280;45684;48.358;10.746;2023-09-07T03:21:12;96540.34;;;12.65;100.00
10014;BME280;45684;48.358;10.746;2023-09-07T03:23:41;96536.06;;;12.64;100.00
10014;BME280;45684;48.358;10.746;2023-09-07T03:26:13;96531.25;;;12.61;100.00
10014;BME280;45684;48.358;10.746;2023-09-07T03:28:41;96535.09;;;12.60;100.00
10014;BME280;45684;48.358;10.746;2023-09-07T03:31:09;96538.09;;;12.59;100.00
10014;BME280;45684;48.358;10.746;2023-09-07T03:33:37;96541.94;;;12.58;100.00
10014;BME280;45684;48.358;10.746;2023-09-07T03:36:05;96541.47;;;12.56;100.00
10014;BME280;45684;48.358;10.746;2023-09-07T03:38:32;96538.59;;;12.52;100.00
10014;BME280;45684;48.358;10.746;2023-09-07T03:41:02;96542.44;;;12.51;100.00
10014;BME280;45684;48.358;10.746;2023-09-07T03:43:30;96545.78;;;12.48;100.00
10014;BME280;45684;48.358;10.746;2023-09-07T03:45:58;96539.09;;;12.45;100.00
10014;BME280;45684;48.358;10.746;2023-09-07T03:48:26;96544.97;;;12.39;100.00
10014;BME280;45684;48.358;10.746;2023-09-07T03:50:54;96549.28;;;12.31;100.00
10014;BME280;45684;48.358;10.746;2023-09-07T03:53:21;96542.41;;;12.25;100.00
10014;BME280;45684;48.358;10.746;2023-09-07T03:55:49;96543.84;;;12.22;100.00
10014;BME280;45684;48.358;10.746;2023-09-07T03:58:18;96539.69;;;12.16;100.00
10014;BME280;45684;48.358;10.746;2023-09-07T04:00:47;96547.66;;;12.13;100.00
10014;BME280;45684;48.358;10.746;2023-09-07T04:03:16;96549.09;;;12.10;100.00
10014;BME280;45684;48.358;10.746;2023-09-07T04:05:44;96543.50;;;12.07;100.00
10014;BME280;45684;48.358;10.746;2023-09-07T04:08:12;96544.28;;;12.07;100.00
10014;BME280;45684;48.358;10.746;2023-09-07T04:10:40;96536.66;;;12.09;100.00
10014;BME280;45684;48.358;10.746;2023-09-07T04:13:08;96543.34;;;12.12;100.00
10014;BME280;45684;48.358;10.746;2023-09-07T04:15:43;96542.53;;;12.11;100.00
10014;BME280;45684;48.358;10.746;2023-09-07T04:18:14;96545.25;;;12.11;100.00
10014;BME280;45684;48.358;10.746;2023-09-07T04:20:43;96539.03;;;12.11;100.00
10014;BME280;45684;48.358;10.746;2023-09-07T04:23:12;96541.75;;;12.11;100.00
10014;BME280;45684;48.358;10.746;2023-09-07T04:25:40;96540.47;;;12.08;100.00
10014;BME280;45684;48.358;10.746;2023-09-07T04:28:09;96536.81;;;12.04;100.00
10014;BME280;45684;48.358;10.746;2023-09-07T04:30:37;96546.06;;;12.03;100.00
10014;BME280;45684;48.358;10.746;2023-09-07T04:33:07;96544.44;;;12.02;100.00
10014;BME280;45684;48.358;10.746;2023-09-07T04:35:37;96541.25;;;12.00;100.00
10014;BME280;45684;48.358;10.746;2023-09-07T04:38:06;96533.75;;;11.97;100.00
10014;BME280;45684;48.358;10.746;2023-09-07T04:40:33;96543.78;;;11.96;100.00
10014;BME280;45684;48.358;10.746;2023-09-07T04:43:02;96545.09;;;11.99;100.00
10014;BME280;45684;48.358;10.746;2023-09-07T04:45:30;96540.47;;;11.99;100.00
10014;BME280;45684;48.358;10.746;2023-09-07T04:47:58;96539.81;;;12.03;100.00
10014;BME280;45684;48.358;10.746;2023-09-07T04:50:27;96545.72;;;12.05;100.00
10014;BME280;45684;48.358;10.746;2023-09-07T04:52:55;96547.31;;;12.06;100.00
10014;BME280;45684;48.358;10.746;2023-09-07T04:55:23;96541.09;;;12.05;100.00
10014;BME280;45684;48.358;10.746;2023-09-07T04:57:51;96542.84;;;12.01;100.00
10014;BME280;45684;48.358;10.746;2023-09-07T05:00:18;96547.94;;;11.94;100.00
10014;BME280;45684;48.358;10.746;2023-09-07T05:02:47;96540.91;;;11.93;100.00
10014;BME280;45684;48.358;10.746;2023-09-07T05:05:15;96541.22;;;11.91;100.00
10014;BME280;45684;48.358;10.746;2023-09-07T05:07:45;96553.38;;;11.94;100.00
10014;BME280;45684;48.358;10.746;2023-09-07T05:10:13;96550.00;;;11.97;100.00
10014;BME280;45684;48.358;10.746;2023-09-07T05:12:41;96552.56;;;12.02;100.00
10014;BME280;45684;48.358;10.746;2023-09-07T05:15:09;96549.25;;;12.05;100.00
10014;BME280;45684;48.358;10.746;2023-09-07T05:17:37;96554.50;;;12.10;100.00
10014;BME280;45684;48.358;10.746;2023-09-07T05:20:07;96546.22;;;12.15;100.00
10014;BME280;45684;48.358;10.746;2023-09-07T05:22:35;96545.59;;;12.18;100.00
10014;BME280;45684;48.358;10.746;2023-09-07T05:25:08;96551.19;;;12.22;100.00
10014;BME280;45684;48.358;10.746;2023-09-07T05:27:36;96564.25;;;12.29;100.00
10014;BME280;45684;48.358;10.746;2023-09-07T05:30:05;96557.91;;;12.33;100.00
10014;BME280;45684;48.358;10.746;2023-09-07T05:32:34;96562.84;;;12.40;100.00
10014;BME280;45684;48.358;10.746;2023-09-07T05:35:01;96561.09;;;12.44;100.00
10014;BME280;45684;48.358;10.746;2023-09-07T05:37:29;96559.84;;;12.50;100.00
10014;BME280;45684;48.358;10.746;2023-09-07T05:39:57;96562.38;;;12.55;100.00
10014;BME280;45684;48.358;10.746;2023-09-07T05:42:27;96561.72;;;12.58;100.00
10014;BME280;45684;48.358;10.746;2023-09-07T05:44:55;96571.63;;;12.63;100.00
10014;BME280;45684;48.358;10.746;2023-09-07T05:47:23;96565.72;;;12.69;100.00
10014;BME280;45684;48.358;10.746;2023-09-07T05:49:53;96576.44;;;12.74;100.00
10014;BME280;45684;48.358;10.746;2023-09-07T05:52:20;96567.00;;;12.81;100.00
10014;BME280;45684;48.358;10.746;2023-09-07T05:54:48;96561.09;;;12.87;100.00
10014;BME280;45684;48.358;10.746;2023-09-07T05:57:16;96568.13;;;12.97;100.00
10014;BME280;45684;48.358;10.746;2023-09-07T05:59:46;96566.66;;;13.08;100.00
10014;BME280;45684;48.358;10.746;2023-09-07T06:02:14;96561.84;;;13.22;100.00
10014;BME280;45684;48.358;10.746;2023-09-07T06:04:42;96566.47;;;13.39;100.00
10014;BME280;45684;48.358;10.746;2023-09-07T06:07:10;96556.19;;;13.53;100.00
10014;BME280;45684;48.358;10.746;2023-09-07T06:09:37;96557.56;;;13.68;100.00
10014;BME280;45684;48.358;10.746;2023-09-07T06:12:05;96557.97;;;13.79;100.00
10014;BME280;45684;48.358;10.746;2023-09-07T06:14:34;96556.16;;;13.92;100.00
10014;BME280;45684;48.358;10.746;2023-09-07T06:17:03;96563.16;;;14.01;100.00
10014;BME280;45684;48.358;10.746;2023-09-07T06:19:31;96570.94;;;14.12;100.00
10014;BME280;45684;48.358;10.746;2023-09-07T06:22:01;96559.66;;;14.22;100.00
10014;BME280;45684;48.358;10.746;2023-09-07T06:24:29;96561.69;;;14.34;100.00
10014;BME280;45684;48.358;10.746;2023-09-07T06:26:57;96568.31;;;14.45;100.00
10014;BME280;45684;48.358;10.746;2023-09-07T06:29:25;96573.06;;;14.57;100.00
10014;BME280;45684;48.358;10.746;2023-09-07T06:31:52;96567.22;;;14.67;100.00
10014;BME280;45684;48.358;10.746;2023-09-07T06:34:23;96567.16;;;14.75;100.00
10014;BME280;45684;48.358;10.746;2023-09-07T06:36:51;96567.53;;;14.86;100.00
10014;BME280;45684;48.358;10.746;2023-09-07T06:39:19;96576.78;;;14.94;100.00
10014;BME280;45684;48.358;10.746;2023-09-07T06:41:48;96572.50;;;15.05;100.00
10014;BME280;45684;48.358;10.746;2023-09-07T06:44:18;96576.72;;;15.15;100.00
10014;BME280;45684;48.358;10.746;2023-09-07T06:46:46;96573.94;;;15.23;100.00
10014;BME280;45684;48.358;10.746;2023-09-07T06:49:14;96575.44;;;15.33;100.00
10014;BME280;45684;48.358;10.746;2023-09-07T06:51:43;96574.19;;;15.43;100.00
10014;BME280;45684;48.358;10.746;2023-09-07T06:54:11;96573.78;;;15.53;100.00
10014;BME280;45684;48.358;10.746;2023-09-07T06:56:40;96571.75;;;15.62;100.00
10014;BME280;45684;48.358;10.746;2023-09-07T06:59:08;96575.66;;;15.73;100.00
10014;BME280;45684;48.358;10.746;2023-09-07T07:01:36;96572.84;;;15.82;100.00
10014;BME280;45684;48.358;10.746;2023-09-07T07:04:05;96577.84;;;15.92;100.00
10014;BME280;45684;48.358;10.746;2023-09-07T07:06:33;96576.59;;;16.02;100.00
10014;BME280;45684;48.358;10.746;2023-09-07T07:09:02;96576.13;;;16.12;100.00
10014;BME280;45684;48.358;10.746;2023-09-07T07:11:30;96582.72;;;16.23;100.00
10014;BME280;45684;48.358;10.746;2023-09-07T07:13:58;96580.69;;;16.32;100.00
10014;BME280;45684;48.358;10.746;2023-09-07T07:16:26;96591.13;;;16.43;100.00
10014;BME280;45684;48.358;10.746;2023-09-07T07:18:54;96588.72;;;16.53;100.00
10014;BME280;45684;48.358;10.746;2023-09-07T07:21:22;96600.28;;;16.63;100.00
10014;BME280;45684;48.358;10.746;2023-09-07T07:23:51;96594.38;;;16.73;100.00
10014;BME280;45684;48.358;10.746;2023-09-07T07:26:20;96599.72;;;16.81;100.00
10014;BME280;45684;48.358;10.746;2023-09-07T07:28:49;96598.44;;;16.91;100.00
10014;BME280;45684;48.358;10.746;2023-09-07T07:31:17;96601.03;;;17.00;100.00
10014;BME280;45684;48.358;10.746;2023-09-07T07:33:46;96606.00;;;17.10;100.00
10014;BME280;45684;48.358;10.746;2023-09-07T07:36:14;96601.53;;;17.18;100.00
10014;BME280;45684;48.358;10.746;2023-09-07T07:38:42;96608.00;;;17.25;100.00
10014;BME280;45684;48.358;10.746;2023-09-07T07:41:10;96605.88;;;17.34;100.00
10014;BME280;45684;48.358;10.746;2023-09-07T07:43:39;96604.94;;;17.43;100.00
10014;BME280;45684;48.358;10.746;2023-09-07T07:46:08;96608.78;;;17.54;100.00
10014;BME280;45684;48.358;10.746;2023-09-07T07:48:37;96609.03;;;17.65;100.00
10014;BME280;45684;48.358;10.746;2023-09-07T07:51:05;96613.66;;;17.76;100.00
10014;BME280;45684;48.358;10.746;2023-09-07T07:53:39;96612.81;;;17.88;100.00
10014;BME280;45684;48.358;10.746;2023-09-07T07:56:14;96613.06;;;17.99;100.00
10014;BME280;45684;48.358;10.746;2023-09-07T07:58:44;96614.84;;;18.07;100.00
10014;BME280;45684;48.358;10.746;2023-09-07T08:01:14;96617.41;;;18.16;100.00
10014;BME280;45684;48.358;10.746;2023-09-07T08:03:43;96614.91;;;18.26;100.00
10014;BME280;45684;48.358;10.746;2023-09-07T08:06:11;96614.34;;;18.36;100.00
10014;BME280;45684;48.358;10.746;2023-09-07T08:08:39;96606.31;;;18.44;100.00
10014;BME280;45684;48.358;10.746;2023-09-07T08:11:07;96615.56;;;18.55;100.00
10014;BME280;45684;48.358;10.746;2023-09-07T08:13:38;96608.41;;;18.66;100.00
10014;BME280;45684;48.358;10.746;2023-09-07T08:16:08;96615.72;;;18.78;100.00
10014;BME280;45684;48.358;10.746;2023-09-07T08:18:40;96615.97;;;18.89;100.00
10014;BME280;45684;48.358;10.746;2023-09-07T08:21:09;96619.25;;;18.98;100.00
10014;BME280;45684;48.358;10.746;2023-09-07T08:23:37;96615.09;;;19.04;100.00
10014;BME280;45684;48.358;10.746;2023-09-07T08:26:05;96609.41;;;19.13;100.00
10014;BME280;45684;48.358;10.746;2023-09-07T08:28:33;96613.88;;;19.21;100.00
10014;BME280;45684;48.358;10.746;2023-09-07T08:31:01;96609.31;;;19.28;100.00
10014;BME280;45684;48.358;10.746;2023-09-07T08:33:33;96603.53;;;19.33;100.00
10014;BME280;45684;48.358;10.746;2023-09-07T08:36:07;96610.75;;;19.42;100.00
10014;BME280;45684;48.358;10.746;2023-09-07T08:38:35;96602.38;;;19.54;100.00
10014;BME280;45684;48.358;10.746;2023-09-07T08:41:05;96607.66;;;19.62;100.00
10014;BME280;45684;48.358;10.746;2023-09-07T08:43:33;96609.75;;;19.69;100.00
10014;BME280;45684;48.358;10.746;2023-09-07T08:46:11;96611.94;;;19.83;100.00
10014;BME280;45684;48.358;10.746;2023-09-07T08:48:43;96605.84;;;19.93;100.00
10014;BME280;45684;48.358;10.746;2023-09-07T08:51:14;96599.81;;;20.07;100.00
10014;BME280;45684;48.358;10.746;2023-09-07T08:53:42;96612.97;;;20.21;100.00
10014;BME280;45684;48.358;10.746;2023-09-07T08:56:13;96601.38;;;20.31;100.00
10014;BME280;45684;48.358;10.746;2023-09-07T08:58:41;96605.03;;;20.38;100.00
10014;BME280;45684;48.358;10.746;2023-09-07T09:01:11;96611.13;;;20.51;100.00
10014;BME280;45684;48.358;10.746;2023-09-07T09:03:43;96607.75;;;20.61;100.00
10014;BME280;45684;48.358;10.746;2023-09-07T09:06:11;96604.09;;;20.80;100.00
10014;BME280;45684;48.358;10.746;2023-09-07T09:08:43;96603.91;;;20.96;100.00
10014;BME280;45684;48.358;10.746;2023-09-07T09:11:11;96604.13;;;21.14;100.00
10014;BME280;45684;48.358;10.746;2023-09-07T09:13:40;96607.13;;;21.32;100.00
10014;BME280;45684;48.358;10.746;2023-09-07T09:16:08;96609.75;;;21.55;100.00
10014;BME280;45684;48.358;10.746;2023-09-07T09:18:36;96617.47;;;21.79;100.00
10014;BME280;45684;48.358;10.746;2023-09-07T09:21:07;96616.13;;;22.03;100.00
10014;BME280;45684;48.358;10.746;2023-09-07T09:23:36;96613.56;;;22.21;100.00
10014;BME280;45684;48.358;10.746;2023-09-07T09:26:04;96613.97;;;22.27;100.00
10014;BME280;45684;48.358;10.746;2023-09-07T09:28:32;96622.03;;;22.50;100.00
10014;BME280;45684;48.358;10.746;2023-09-07T09:31:02;96618.63;;;22.71;100.00
10014;BME280;45684;48.358;10.746;2023-09-07T09:33:30;96623.09;;;22.89;100.00
10014;BME280;45684;48.358;10.746;2023-09-07T09:35:59;96612.97;;;23.11;100.00
10014;BME280;45684;48.358;10.746;2023-09-07T09:38:28;96623.34;;;23.32;100.00
10014;BME280;45684;48.358;10.746;2023-09-07T09:40:59;96610.75;;;23.46;100.00
10014;BME280;45684;48.358;10.746;2023-09-07T09:43:27;96614.72;;;23.59;100.00
10014;BME280;45684;48.358;10.746;2023-09-07T09:45:55;96622.69;;;23.71;100.00
10014;BME280;45684;48.358;10.746;2023-09-07T09:48:24;96606.53;;;23.87;100.00
10014;BME280;45684;48.358;10.746;2023-09-07T09:50:52;96607.72;;;24.01;100.00
10014;BME280;45684;48.358;10.746;2023-09-07T09:53:20;96610.50;;;24.15;100.00
10014;BME280;45684;48.358;10.746;2023-09-07T09:55:51;96614.88;;;24.30;100.00
10014;BME280;45684;48.358;10.746;2023-09-07T09:58:19;96602.66;;;24.42;100.00
10014;BME280;45684;48.358;10.746;2023-09-07T10:00:49;96601.47;;;24.50;100.00
10014;BME280;45684;48.358;10.746;2023-09-07T10:03:32;96602.63;;;24.56;100.00
10014;BME280;45684;48.358;10.746;2023-09-07T10:06:08;96601.44;;;24.68;100.00
10014;BME280;45684;48.358;10.746;2023-09-07T10:08:36;96600.63;;;24.78;100.00
10014;BME280;45684;48.358;10.746;2023-09-07T10:11:08;96599.44;;;24.86;99.49
10014;BME280;45684;48.358;10.746;2023-09-07T10:13:37;96590.28;;;25.00;100.00
10014;BME280;45684;48.358;10.746;2023-09-07T10:16:06;96588.66;;;25.17;100.00
10014;BME280;45684;48.358;10.746;2023-09-07T10:18:36;96587.03;;;25.27;97.86
10014;BME280;45684;48.358;10.746;2023-09-07T10:21:03;96582.25;;;25.38;95.32
10014;BME280;45684;48.358;10.746;2023-09-07T10:23:36;96585.03;;;25.38;90.86
10014;BME280;45684;48.358;10.746;2023-09-07T10:26:05;96582.97;;;25.53;90.20
10014;BME280;45684;48.358;10.746;2023-09-07T10:28:38;96584.47;;;25.64;91.25
10014;BME280;45684;48.358;10.746;2023-09-07T10:31:12;96583.63;;;25.78;90.51
10014;BME280;45684;48.358;10.746;2023-09-07T10:33:41;96577.28;;;25.81;83.05
10014;BME280;45684;48.358;10.746;2023-09-07T10:36:20;96580.34;;;25.98;87.83
10014;BME280;45684;48.358;10.746;2023-09-07T10:38:49;96584.16;;;26.14;88.09
10014;BME280;45684;48.358;10.746;2023-09-07T10:41:19;96580.91;;;26.27;87.57
10014;BME280;45684;48.358;10.746;2023-09-07T10:43:51;96580.00;;;26.40;85.16
10014;BME280;45684;48.358;10.746;2023-09-07T10:46:19;96585.44;;;26.55;84.60
10014;BME280;45684;48.358;10.746;2023-09-07T10:48:53;96584.91;;;26.67;81.36
10014;BME280;45684;48.358;10.746;2023-09-07T10:51:23;96587.59;;;26.78;80.19
10014;BME280;45684;48.358;10.746;2023-09-07T10:53:50;96591.44;;;26.91;80.77
10014;BME280;45684;48.358;10.746;2023-09-07T10:56:18;96584.94;;;27.05;82.89
10014;BME280;45684;48.358;10.746;2023-09-07T10:58:46;96578.94;;;27.10;77.17
10014;BME280;45684;48.358;10.746;2023-09-07T11:01:19;96579.97;;;27.23;77.87
10014;BME280;45684;48.358;10.746;2023-09-07T11:03:47;96579.06;;;27.33;78.56
10014;BME280;45684;48.358;10.746;2023-09-07T11:06:16;96585.63;;;27.46;72.79
10014;BME280;45684;48.358;10.746;2023-09-07T11:08:46;96570.47;;;27.51;73.88
10014;BME280;45684;48.358;10.746;2023-09-07T11:11:22;96577.94;;;27.58;72.71
10014;BME280;45684;48.358;10.746;2023-09-07T11:13:50;96567.97;;;27.60;70.95
10014;BME280;45684;48.358;10.746;2023-09-07T11:16:18;96560.25;;;27.75;72.63
10014;BME280;45684;48.358;10.746;2023-09-07T11:18:46;96556.06;;;27.90;73.38
10014;BME280;45684;48.358;10.746;2023-09-07T11:21:14;96557.81;;;28.04;71.46
10014;BME280;45684;48.358;10.746;2023-09-07T11:23:42;96546.66;;;28.08;66.27
10014;BME280;45684;48.358;10.746;2023-09-07T11:26:11;96557.28;;;28.13;70.67
10014;BME280;45684;48.358;10.746;2023-09-07T11:28:41;96547.06;;;28.30;70.12
10014;BME280;45684;48.358;10.746;2023-09-07T11:31:09;96550.06;;;28.42;67.06
10014;BME280;45684;48.358;10.746;2023-09-07T11:33:37;96552.59;;;28.57;67.66
10014;BME280;45684;48.358;10.746;2023-09-07T11:36:05;96556.38;;;28.66;62.89
10014;BME280;45684;48.358;10.746;2023-09-07T11:38:36;96545.41;;;28.79;61.08
10014;BME280;45684;48.358;10.746;2023-09-07T11:41:04;96544.41;;;28.89;58.90
10014;BME280;45684;48.358;10.746;2023-09-07T11:43:32;96546.22;;;29.00;64.55
10014;BME280;45684;48.358;10.746;2023-09-07T11:46:02;96544.88;;;29.08;56.93
10014;BME280;45684;48.358;10.746;2023-09-07T11:48:30;96551.38;;;29.21;60.47
10014;BME280;45684;48.358;10.746;2023-09-07T11:51:00;96544.06;;;29.27;54.87
10014;BME280;45684;48.358;10.746;2023-09-07T11:53:28;96548.78;;;29.30;55.24
10014;BME280;45684;48.358;10.746;2023-09-07T11:55:57;96542.78;;;29.32;54.34
10014;BME280;45684;48.358;10.746;2023-09-07T11:58:25;96540.63;;;29.39;52.36
10014;BME280;45684;48.358;10.746;2023-09-07T12:00:56;96536.72;;;29.57;51.43
10014;BME280;45684;48.358;10.746;2023-09-07T12:03:25;96546.47;;;29.65;50.13
10014;BME280;45684;48.358;10.746;2023-09-07T12:05:56;96539.06;;;29.74;49.24
10014;BME280;45684;48.358;10.746;2023-09-07T12:08:24;96542.16;;;29.80;49.09
10014;BME280;45684;48.358;10.746;2023-09-07T12:10:52;96537.53;;;29.90;50.09
10014;BME280;45684;48.358;10.746;2023-09-07T12:13:20;96538.13;;;29.97;49.75
10014;BME280;45684;48.358;10.746;2023-09-07T12:15:48;96533.63;;;30.04;48.73
10014;BME280;45684;48.358;10.746;2023-09-07T12:18:15;96526.81;;;30.05;47.52
10014;BME280;45684;48.358;10.746;2023-09-07T12:20:45;96534.22;;;30.11;48.81
10014;BME280;45684;48.358;10.746;2023-09-07T12:23:13;96531.53;;;30.24;48.86
10014;BME280;45684;48.358;10.746;2023-09-07T12:25:40;96520.09;;;30.35;48.03
10014;BME280;45684;48.358;10.746;2023-09-07T12:28:08;96521.16;;;30.41;48.59
10014;BME280;45684;48.358;10.746;2023-09-07T12:30:36;96525.59;;;30.38;46.85
10014;BME280;45684;48.358;10.746;2023-09-07T12:33:04;96522.19;;;30.47;46.98
10014;BME280;45684;48.358;10.746;2023-09-07T12:35:32;96519.31;;;30.51;44.76
10014;BME280;45684;48.358;10.746;2023-09-07T12:38:01;96518.00;;;30.55;45.04
10014;BME280;45684;48.358;10.746;2023-09-07T12:40:29;96516.91;;;30.65;45.31
10014;BME280;45684;48.358;10.746;2023-09-07T12:43:00;96518.31;;;30.73;45.03
10014;BME280;45684;48.358;10.746;2023-09-07T12:45:27;96518.47;;;30.83;44.67
10014;BME280;45684;48.358;10.746;2023-09-07T12:47:55;96514.00;;;30.85;45.92
10014;BME280;45684;48.358;10.746;2023-09-07T12:50:23;96510.47;;;30.97;45.08